createdAt,value
2022-12-01T00:04:36.698Z,2.19
2022-12-01T00:09:58.201Z,2.28
2022-12-01T00:15:02.417Z,1.96
2022-12-01T00:20:08.833Z,1.81
2022-12-01T00:25:13.367Z,1.49
2022-12-01T00:30:18.514Z,1.56
2022-12-01T00:35:24.197Z,2.06
2022-12-01T00:40:28.163Z,2.05
2022-12-01T00:45:32.375Z,1.98
2022-12-01T00:50:37.700Z,2.55
2022-12-01T00:55:41.490Z,1.60
2022-12-01T01:00:45.292Z,1.62
2022-12-01T01:05:50.446Z,1.83
2022-12-01T01:10:54.201Z,2.88
2022-12-01T01:16:00.584Z,2.36
2022-12-01T01:21:08.370Z,1.90
2022-12-01T01:26:17.102Z,2.51
2022-12-01T01:31:23.188Z,2.25
2022-12-01T01:36:28.832Z,2.34
2022-12-01T01:41:32.987Z,2.48
2022-12-01T01:46:36.868Z,1.91
2022-12-01T01:51:45.951Z,1.71
2022-12-01T01:56:52.946Z,1.68
2022-12-01T02:02:06.246Z,2.07
2022-12-01T02:07:14.322Z,1.32
2022-12-01T02:12:37.760Z,1.50
2022-12-01T02:17:51.684Z,1.46
2022-12-01T02:23:19.033Z,1.43
2022-12-01T02:28:49.222Z,1.86
2022-12-01T02:33:59.753Z,1.35
2022-12-01T02:39:11.036Z,1.54
2022-12-01T02:44:21.314Z,1.37
2022-12-01T02:49:31.270Z,1.10
2022-12-01T02:54:36.543Z,1.37
2022-12-01T02:59:42.528Z,1.72
2022-12-01T03:04:56.381Z,1.19
2022-12-01T03:10:09.182Z,1.33
2022-12-01T03:15:24.259Z,1.70
2022-12-01T03:20:35.571Z,1.77
2022-12-01T03:25:43.261Z,1.37
2022-12-01T03:30:49.863Z,1.38
2022-12-01T03:35:59.629Z,1.51
2022-12-01T03:41:08.064Z,1.04
2022-12-01T03:46:17.787Z,1.35
2022-12-01T03:51:31.450Z,0.90
2022-12-01T03:56:39.951Z,1.03
2022-12-01T04:01:44.186Z,0.90
2022-12-01T04:06:51.570Z,1.37
2022-12-01T04:12:13.070Z,1.07
2022-12-01T04:17:16.927Z,1.18
2022-12-01T04:22:22.428Z,1.16
2022-12-01T04:27:26.321Z,1.54
2022-12-01T04:32:30.337Z,1.82
2022-12-01T04:37:35.569Z,1.54
2022-12-01T04:42:39.441Z,1.10
2022-12-01T04:47:43.416Z,0.96
2022-12-01T04:52:48.698Z,0.84
2022-12-01T04:57:52.619Z,1.21
2022-12-01T05:02:56.544Z,1.09
2022-12-01T05:08:02.061Z,0.92
2022-12-01T05:13:07.457Z,0.83
2022-12-01T05:18:11.663Z,0.83
2022-12-01T05:23:17.381Z,0.90
2022-12-01T05:28:22.306Z,1.04
2022-12-01T05:33:28.375Z,1.06
2022-12-01T05:38:33.689Z,0.69
2022-12-01T05:43:37.428Z,0.78
2022-12-01T05:48:43.097Z,0.70
2022-12-01T05:53:48.207Z,0.54
2022-12-01T05:58:52.169Z,0.58
2022-12-01T06:03:56.027Z,0.58
2022-12-01T06:09:01.279Z,0.57
2022-12-01T06:14:05.044Z,0.94
2022-12-01T06:19:08.806Z,0.70
2022-12-01T06:24:14.391Z,0.49
2022-12-01T06:29:18.358Z,0.62
2022-12-01T06:34:23.168Z,0.97
2022-12-01T06:39:31.054Z,1.17
2022-12-01T06:44:39.711Z,1.02
2022-12-01T06:49:47.715Z,0.90
2022-12-01T06:54:54.518Z,1.00
2022-12-01T06:59:58.920Z,0.73
2022-12-01T07:05:05.848Z,1.69
2022-12-01T07:10:14.217Z,0.95
2022-12-01T07:15:18.117Z,1.17
2022-12-01T07:20:21.997Z,0.76
2022-12-01T07:25:27.303Z,0.97
2022-12-01T07:30:31.396Z,0.89
2022-12-01T07:35:35.914Z,1.44
2022-12-01T07:40:41.149Z,1.37
2022-12-01T07:45:45.229Z,1.69
2022-12-01T07:50:49.233Z,2.07
2022-12-01T07:55:54.597Z,1.25
2022-12-01T08:00:58.934Z,1.20
2022-12-01T08:06:04.204Z,2.17
2022-12-01T08:11:12.791Z,1.72
2022-12-01T08:16:18.643Z,2.45
2022-12-01T08:21:24.503Z,1.85
2022-12-01T08:26:31.343Z,1.75
2022-12-01T08:31:38.119Z,2.34
2022-12-01T08:36:42.080Z,1.43
2022-12-01T08:41:47.335Z,1.06
2022-12-01T08:46:51.346Z,1.67
2022-12-01T08:51:56.374Z,1.76
2022-12-01T08:57:01.498Z,0.93
2022-12-01T09:02:07.315Z,1.18
2022-12-01T09:07:15.109Z,2.18
2022-12-01T09:12:20.256Z,2.14
2022-12-01T09:17:24.401Z,2.13
2022-12-01T09:22:28.559Z,2.34
2022-12-01T09:27:33.810Z,1.99
2022-12-01T09:32:37.663Z,2.50
2022-12-01T09:37:41.472Z,2.13
2022-12-01T09:42:48.781Z,1.68
2022-12-01T09:47:55.402Z,2.13
2022-12-01T09:53:01.782Z,1.71
2022-12-01T09:58:17.837Z,1.54
2022-12-01T10:03:26.155Z,1.27
2022-12-01T10:08:33.075Z,1.60
2022-12-01T10:13:38.321Z,1.66
2022-12-01T10:18:52.846Z,1.82
2022-12-01T10:24:13.374Z,1.68
2022-12-01T10:29:28.647Z,1.53
2022-12-01T10:34:35.341Z,1.26
2022-12-01T10:39:41.119Z,1.10
2022-12-01T10:44:46.701Z,1.25
2022-12-01T10:49:50.713Z,2.02
2022-12-01T10:54:54.774Z,2.21
2022-12-01T11:00:02.735Z,2.54
2022-12-01T11:05:19.970Z,2.47
2022-12-01T11:10:27.058Z,1.93
2022-12-01T11:15:34.870Z,1.90
2022-12-01T11:20:41.071Z,2.36
2022-12-01T11:26:01.442Z,2.81
2022-12-01T11:31:08.931Z,2.37
2022-12-01T11:36:22.476Z,1.91
2022-12-01T11:41:30.873Z,2.76
2022-12-01T11:46:50.129Z,2.75
2022-12-01T11:52:17.372Z,2.46
2022-12-01T11:57:35.300Z,2.15
2022-12-01T12:02:47.059Z,2.38
2022-12-01T12:08:00.844Z,2.15
2022-12-01T12:13:23.183Z,2.12
2022-12-01T12:18:51.446Z,2.61
2022-12-01T12:24:19.243Z,2.72
2022-12-01T12:29:38.543Z,2.30
2022-12-01T12:34:54.527Z,2.06
2022-12-01T12:40:06.190Z,1.87
2022-12-01T12:45:20.760Z,2.38
2022-12-01T12:50:33.257Z,2.16
2022-12-01T12:55:41.394Z,1.57
2022-12-01T13:00:51.658Z,1.58
2022-12-01T13:06:02.618Z,1.01
2022-12-01T13:11:11.494Z,1.08
2022-12-01T13:16:20.168Z,1.75
2022-12-01T13:21:26.966Z,1.57
2022-12-01T13:26:37.605Z,1.98
2022-12-01T13:31:47.857Z,1.73
2022-12-01T13:36:55.095Z,1.69
2022-12-01T13:42:01.559Z,1.90
2022-12-01T13:47:31.795Z,1.46
2022-12-01T13:52:49.816Z,1.31
2022-12-01T13:58:42.190Z,1.51
2022-12-01T14:03:53.686Z,1.32
2022-12-01T14:09:02.610Z,1.33
2022-12-01T14:14:14.261Z,1.13
2022-12-01T14:19:34.202Z,0.82
2022-12-01T14:24:43.697Z,0.85
2022-12-01T14:29:47.653Z,1.53
2022-12-01T14:35:13.900Z,1.66
2022-12-01T14:40:26.409Z,1.64
2022-12-01T14:45:36.613Z,1.05
2022-12-01T14:50:46.823Z,1.06
2022-12-01T14:55:57.451Z,0.58
2022-12-01T15:01:07.032Z,0.95
2022-12-01T15:06:16.995Z,0.97
2022-12-01T15:11:25.622Z,0.95
2022-12-01T15:16:32.255Z,1.03
2022-12-01T15:21:36.185Z,1.62
2022-12-01T15:26:48.411Z,1.51
2022-12-01T15:31:55.050Z,1.21
2022-12-01T15:37:00.320Z,1.21
2022-12-01T15:42:06.608Z,2.21
2022-12-01T15:47:32.663Z,1.11
2022-12-01T15:52:43.727Z,1.83
2022-12-01T15:57:49.084Z,1.34
2022-12-01T16:02:54.660Z,1.05
2022-12-01T16:08:13.240Z,1.26
2022-12-01T16:13:40.178Z,0.91
2022-12-01T16:18:53.885Z,0.56
2022-12-01T16:24:02.581Z,0.60
2022-12-01T16:29:19.329Z,0.41
2022-12-01T16:34:45.209Z,0.44
2022-12-01T16:39:49.417Z,0.75
2022-12-01T16:44:54.808Z,0.99
2022-12-01T16:49:58.877Z,0.72
2022-12-01T16:55:02.907Z,0.45
2022-12-01T17:00:11.111Z,0.71
2022-12-01T17:05:15.155Z,1.04
2022-12-01T17:10:19.261Z,0.86
2022-12-01T17:15:24.725Z,0.82
2022-12-01T17:20:28.741Z,1.50
2022-12-01T17:25:33.146Z,0.92
2022-12-01T17:30:39.227Z,0.83
2022-12-01T17:35:43.189Z,1.16
2022-12-01T17:40:47.248Z,1.37
2022-12-01T17:45:52.937Z,1.43
2022-12-01T17:50:56.816Z,1.97
2022-12-01T17:56:00.689Z,1.60
2022-12-01T18:01:06.960Z,1.31
2022-12-01T18:06:10.963Z,0.72
2022-12-01T18:11:17.216Z,0.74
2022-12-01T18:16:25.980Z,0.90
2022-12-01T18:21:48.473Z,0.89
2022-12-01T18:26:55.884Z,0.47
2022-12-01T18:32:01.647Z,0.50
2022-12-01T18:37:06.011Z,0.70
2022-12-01T18:42:10.042Z,0.96
2022-12-01T18:47:15.181Z,0.93
2022-12-01T18:52:19.010Z,0.83
2022-12-01T18:57:22.763Z,0.62
2022-12-01T19:02:27.983Z,0.56
2022-12-01T19:07:31.994Z,0.52
2022-12-01T19:12:40.842Z,0.38
2022-12-01T19:17:46.479Z,0.52
2022-12-01T19:22:50.780Z,0.10
2022-12-01T19:27:54.527Z,0.27
2022-12-01T19:32:59.986Z,0.38
2022-12-01T19:38:03.942Z,0.43
2022-12-01T19:43:07.716Z,0.40
2022-12-01T19:48:13.115Z,0.46
2022-12-01T19:53:16.870Z,0.99
2022-12-01T19:58:20.662Z,0.89
2022-12-01T20:03:26.118Z,-0.07
2022-12-01T20:08:32.833Z,-0.02
2022-12-01T20:13:40.933Z,0.02
2022-12-01T20:18:45.964Z,-0.05
2022-12-01T20:23:51.888Z,-0.39
2022-12-01T20:28:56.024Z,-0.24
2022-12-01T20:34:04.164Z,-0.17
2022-12-01T20:39:09.512Z,0.78
2022-12-01T20:44:14.792Z,1.50
2022-12-01T20:49:21.275Z,0.54
2022-12-01T20:54:28.453Z,-0.29
2022-12-01T20:59:33.535Z,0.48
2022-12-01T21:04:39.170Z,0.04
2022-12-01T21:09:45.032Z,0.50
2022-12-01T21:14:50.792Z,1.23
2022-12-01T21:20:01.743Z,0.30
2022-12-01T21:25:15.493Z,0.67
2022-12-01T21:30:20.974Z,1.55
2022-12-01T21:35:26.634Z,1.50
2022-12-01T21:40:32.656Z,0.21
2022-12-01T21:45:36.766Z,-0.11
2022-12-01T21:50:42.631Z,0.41
2022-12-01T21:55:49.326Z,-0.32
2022-12-01T22:00:53.735Z,-0.34
2022-12-01T22:06:28.669Z,-0.03
2022-12-01T22:11:32.635Z,-0.12
2022-12-01T22:16:37.932Z,-0.38
2022-12-01T22:21:46.828Z,-0.56
2022-12-01T22:26:53.393Z,0.36
2022-12-01T22:32:31.003Z,0.95
2022-12-01T22:37:41.675Z,0.36
2022-12-01T22:42:45.438Z,0.19
2022-12-01T22:47:49.370Z,-0.14
2022-12-01T22:52:56.425Z,-0.47
2022-12-01T22:58:00.863Z,-0.39
2022-12-01T23:03:09.031Z,-0.89
2022-12-01T23:08:21.197Z,-0.57
2022-12-01T23:13:25.955Z,-0.42
2022-12-01T23:18:32.038Z,0.52
2022-12-01T23:23:38.266Z,0.64
2022-12-01T23:28:42.099Z,0.10
2022-12-01T23:33:46.002Z,-0.08
2022-12-01T23:38:54.168Z,-0.06
2022-12-01T23:44:01.761Z,0.38
2022-12-01T23:49:12.165Z,-0.96
2022-12-01T23:54:20.724Z,-0.62
2022-12-01T23:59:25.258Z,-0.48
